createdAt,value
2023-03-08T00:00:26.985Z,276.71
2023-03-08T00:01:26.992Z,327.53
2023-03-08T00:02:27.035Z,289.41
2023-03-08T00:03:27.078Z,296.47
2023-03-08T00:04:27.132Z,303.53
2023-03-08T00:05:26.994Z,296.47
2023-03-08T00:06:27.003Z,289.41
2023-03-08T00:07:27.017Z,240
2023-03-08T00:08:27.021Z,288
2023-03-08T00:09:27.012Z,293.65
2023-03-08T00:10:27.004Z,290.82
2023-03-08T00:11:27.017Z,296.47
2023-03-08T00:12:27.022Z,309.18
2023-03-08T00:13:27.010Z,288
2023-03-08T00:14:27.001Z,309.18
2023-03-08T00:15:27.033Z,299.29
2023-03-08T00:16:27.075Z,297.88
2023-03-08T00:17:27.007Z,348.71
2023-03-08T00:18:27.033Z,293.65
2023-03-08T00:19:27.020Z,303.53
2023-03-08T00:20:27.022Z,337.41
2023-03-08T00:21:27.020Z,279.53
2023-03-08T00:22:27.018Z,306.35
2023-03-08T00:23:27.021Z,303.53
2023-03-08T00:24:27.053Z,290.82
2023-03-08T00:25:27.030Z,333.18
2023-03-08T00:26:27.037Z,330.35
2023-03-08T00:27:27.051Z,334.59
2023-03-08T00:28:27.027Z,312
2023-03-08T00:29:27.113Z,323.29
2023-03-08T00:30:27.036Z,331.76
2023-03-08T00:31:27.086Z,354.35
2023-03-08T00:32:27.078Z,337.41
2023-03-08T00:33:27.040Z,290.82
2023-03-08T00:34:27.037Z,310.59
2023-03-08T00:35:27.061Z,307.76
2023-03-08T00:36:27.049Z,307.76
2023-03-08T00:37:27.053Z,302.12
2023-03-08T00:38:27.054Z,330.35
2023-03-08T00:39:27.045Z,331.76
2023-03-08T00:40:27.049Z,317.65
2023-03-08T00:41:27.062Z,324.71
2023-03-08T00:42:27.059Z,321.88
2023-03-08T00:43:27.079Z,341.65
2023-03-08T00:44:27.058Z,333.18
2023-03-08T00:45:27.052Z,331.76
2023-03-08T00:46:27.113Z,327.53
2023-03-08T00:47:27.062Z,9.88
2023-03-08T00:48:27.065Z,1.41
2023-03-08T00:49:27.075Z,12.71
2023-03-08T00:50:27.074Z,360
2023-03-08T00:51:27.061Z,12.71
2023-03-08T00:52:27.085Z,360
2023-03-08T00:53:27.066Z,4.24
2023-03-08T00:54:27.083Z,33.88
2023-03-08T00:55:27.069Z,360
2023-03-08T00:56:27.088Z,360
2023-03-08T00:57:27.075Z,334.59
2023-03-08T00:58:27.079Z,321.88
2023-03-08T00:59:27.102Z,288
2023-03-08T01:00:27.076Z,241.41
2023-03-08T01:01:27.106Z,299.29
2023-03-08T01:02:27.083Z,306.35
2023-03-08T01:03:27.121Z,304.94
2023-03-08T01:04:27.111Z,285.18
2023-03-08T01:05:27.110Z,295.06
2023-03-08T01:06:27.087Z,316.24
2023-03-08T01:07:27.105Z,333.18
2023-03-08T01:08:27.119Z,289.41
2023-03-08T01:09:27.093Z,289.41
2023-03-08T01:10:27.091Z,310.59
2023-03-08T01:11:27.101Z,280.94
2023-03-08T01:12:27.105Z,295.06
2023-03-08T01:13:27.101Z,289.41
2023-03-08T01:14:27.094Z,283.76
2023-03-08T01:15:27.127Z,296.47
2023-03-08T01:16:27.109Z,314.82
2023-03-08T01:17:27.096Z,297.88
2023-03-08T01:18:27.105Z,306.35
2023-03-08T01:19:27.116Z,323.29
2023-03-08T01:20:27.124Z,285.18
2023-03-08T01:21:27.108Z,290.82
2023-03-08T01:22:27.111Z,319.06
2023-03-08T01:23:27.116Z,290.82
2023-03-08T01:24:27.109Z,292.24
2023-03-08T01:25:27.119Z,285.18
2023-03-08T01:26:27.137Z,285.18
2023-03-08T01:27:27.114Z,285.18
2023-03-08T01:28:27.138Z,285.18
2023-03-08T01:29:27.158Z,297.88
2023-03-08T01:30:27.114Z,292.24
2023-03-08T01:31:27.144Z,296.47
2023-03-08T01:32:27.169Z,289.41
2023-03-08T01:33:27.119Z,304.94
2023-03-08T01:34:27.127Z,306.35
2023-03-08T01:35:27.123Z,306.35
2023-03-08T01:36:27.132Z,326.12
2023-03-08T01:37:27.132Z,326.12
2023-03-08T01:38:27.128Z,326.12
2023-03-08T01:39:27.130Z,326.12
2023-03-08T01:40:27.131Z,326.12
2023-03-08T01:41:27.171Z,348.71
2023-03-08T01:42:27.134Z,355.76
2023-03-08T01:43:27.137Z,0
2023-03-08T01:44:27.180Z,50.82
2023-03-08T01:45:27.153Z,76.24
2023-03-08T01:46:27.150Z,28.24
2023-03-08T01:47:27.156Z,29.65
2023-03-08T01:48:27.164Z,7.06
2023-03-08T01:49:27.135Z,11.29
2023-03-08T01:50:27.138Z,355.76
2023-03-08T01:51:27.147Z,5.65
2023-03-08T01:52:27.139Z,40.94
2023-03-08T01:53:27.146Z,40.94
2023-03-08T01:54:27.147Z,18.35
2023-03-08T01:55:27.149Z,33.88
2023-03-08T01:56:27.147Z,19.76
2023-03-08T01:57:27.152Z,19.76
2023-03-08T01:58:27.159Z,46.59
2023-03-08T01:59:27.175Z,45.18
2023-03-08T02:00:27.160Z,337.41
2023-03-08T02:01:27.227Z,360
2023-03-08T02:02:28.406Z,352.94
2023-03-08T02:03:27.179Z,11.29
2023-03-08T02:04:27.156Z,357.18
2023-03-08T02:05:27.170Z,11.29
2023-03-08T02:06:27.150Z,360
2023-03-08T02:07:27.155Z,31.06
2023-03-08T02:08:27.164Z,331.76
2023-03-08T02:09:27.188Z,348.71
2023-03-08T02:10:27.169Z,1.41
2023-03-08T02:11:27.164Z,355.76
2023-03-08T02:12:27.172Z,2.82
2023-03-08T02:13:27.165Z,26.82
2023-03-08T02:14:27.189Z,341.65
2023-03-08T02:15:27.170Z,313.41
2023-03-08T02:16:27.163Z,2.82
2023-03-08T02:17:27.167Z,2.82
2023-03-08T02:18:27.166Z,2.82
2023-03-08T02:19:27.187Z,304.94
2023-03-08T02:20:27.177Z,304.94
2023-03-08T02:21:27.182Z,304.94
2023-03-08T02:22:27.168Z,304.94
2023-03-08T02:23:27.180Z,288
2023-03-08T02:24:27.172Z,288
2023-03-08T02:25:27.209Z,288
2023-03-08T02:26:27.192Z,288
2023-03-08T02:27:27.214Z,2.82
2023-03-08T02:28:27.182Z,1.41
2023-03-08T02:29:27.187Z,351.53
2023-03-08T02:30:27.180Z,355.76
2023-03-08T02:31:27.183Z,355.76
2023-03-08T02:32:27.228Z,355.76
2023-03-08T02:33:27.191Z,326.12
2023-03-08T02:34:27.186Z,319.06
2023-03-08T02:35:27.215Z,297.88
2023-03-08T02:36:27.193Z,324.71
2023-03-08T02:37:27.194Z,324.71
2023-03-08T02:38:27.185Z,324.71
2023-03-08T02:39:27.196Z,324.71
2023-03-08T02:40:27.200Z,324.71
2023-03-08T02:41:27.201Z,324.71
2023-03-08T02:42:27.206Z,324.71
2023-03-08T02:43:27.194Z,324.71
2023-03-08T02:44:27.196Z,324.71
2023-03-08T02:45:27.209Z,324.71
2023-03-08T02:46:27.194Z,324.71
2023-03-08T02:47:27.213Z,324.71
2023-03-08T02:48:27.202Z,324.71
2023-03-08T02:49:27.190Z,324.71
2023-03-08T02:50:27.196Z,324.71
2023-03-08T02:51:27.245Z,324.71
2023-03-08T02:52:27.195Z,324.71
2023-03-08T02:53:27.196Z,324.71
2023-03-08T02:54:27.193Z,324.71
2023-03-08T02:55:27.188Z,324.71
2023-03-08T02:56:27.194Z,324.71
2023-03-08T02:57:27.208Z,324.71
2023-03-08T02:58:27.196Z,324.71
2023-03-08T02:59:27.199Z,324.71
2023-03-08T03:00:27.201Z,324.71
2023-03-08T03:01:27.260Z,324.71
2023-03-08T03:02:27.229Z,324.71
2023-03-08T03:03:27.208Z,324.71
2023-03-08T03:04:27.197Z,324.71
2023-03-08T03:05:27.201Z,324.71
2023-03-08T03:06:27.232Z,324.71
2023-03-08T03:07:27.278Z,324.71
2023-03-08T03:08:27.202Z,324.71
2023-03-08T03:09:27.226Z,324.71
2023-03-08T03:10:27.204Z,324.71
2023-03-08T03:11:27.202Z,324.71
2023-03-08T03:12:27.226Z,324.71
2023-03-08T03:13:27.206Z,324.71
2023-03-08T03:14:27.210Z,324.71
2023-03-08T03:15:27.233Z,324.71
2023-03-08T03:16:27.199Z,324.71
2023-03-08T03:17:27.214Z,324.71
2023-03-08T03:18:27.199Z,324.71
2023-03-08T03:19:27.199Z,324.71
2023-03-08T03:20:27.212Z,324.71
2023-03-08T03:21:27.209Z,324.71
2023-03-08T03:22:27.202Z,324.71
2023-03-08T03:23:27.223Z,324.71
2023-03-08T03:24:27.209Z,324.71
2023-03-08T03:25:27.209Z,324.71
2023-03-08T03:26:27.204Z,324.71
2023-03-08T03:27:27.227Z,324.71
2023-03-08T03:28:27.199Z,324.71
2023-03-08T03:29:27.205Z,324.71
2023-03-08T03:30:27.198Z,324.71
2023-03-08T03:31:27.251Z,324.71
2023-03-08T03:32:27.260Z,324.71
2023-03-08T03:33:27.195Z,324.71
2023-03-08T03:34:27.205Z,324.71
2023-03-08T03:35:27.208Z,324.71
2023-03-08T03:36:27.243Z,324.71
2023-03-08T03:37:27.232Z,324.71
2023-03-08T03:38:27.217Z,324.71
2023-03-08T03:39:27.349Z,324.71
2023-03-08T03:40:27.226Z,324.71
2023-03-08T03:41:27.228Z,324.71
2023-03-08T03:42:27.222Z,324.71
2023-03-08T03:43:27.214Z,324.71
2023-03-08T03:44:27.217Z,324.71
2023-03-08T03:45:27.233Z,324.71
2023-03-08T03:46:27.242Z,324.71
2023-03-08T03:47:27.233Z,324.71
2023-03-08T03:48:27.238Z,324.71
2023-03-08T03:49:27.250Z,324.71
2023-03-08T03:50:27.239Z,324.71
2023-03-08T03:51:27.250Z,324.71
2023-03-08T03:52:27.232Z,324.71
2023-03-08T03:53:27.249Z,324.71
2023-03-08T03:54:27.249Z,324.71
2023-03-08T03:55:27.323Z,324.71
2023-03-08T03:56:27.243Z,324.71
2023-03-08T03:57:27.239Z,324.71
2023-03-08T03:58:27.245Z,324.71
2023-03-08T03:59:27.269Z,324.71
2023-03-08T04:00:27.241Z,324.71
2023-03-08T04:01:27.273Z,324.71
2023-03-08T04:02:27.277Z,324.71
2023-03-08T04:03:27.408Z,324.71
2023-03-08T04:04:27.258Z,324.71
2023-03-08T04:05:27.252Z,324.71
2023-03-08T04:06:27.276Z,324.71
2023-03-08T04:07:27.266Z,324.71
2023-03-08T04:08:27.263Z,324.71
2023-03-08T04:09:27.279Z,324.71
2023-03-08T04:10:27.274Z,324.71
2023-03-08T04:11:27.307Z,324.71
2023-03-08T04:12:27.283Z,324.71
2023-03-08T04:13:27.274Z,324.71
2023-03-08T04:14:27.284Z,324.71
2023-03-08T04:15:27.281Z,324.71
2023-03-08T04:16:29.170Z,324.71
2023-03-08T04:17:27.271Z,324.71
2023-03-08T04:18:27.270Z,324.71
2023-03-08T04:19:27.288Z,324.71
2023-03-08T04:20:27.291Z,324.71
2023-03-08T04:21:27.276Z,324.71
2023-03-08T04:22:27.277Z,324.71
2023-03-08T04:23:27.275Z,324.71
2023-03-08T04:24:27.276Z,324.71
2023-03-08T04:25:27.283Z,324.71
2023-03-08T04:26:27.277Z,324.71
2023-03-08T04:27:27.304Z,324.71
2023-03-08T04:28:27.281Z,324.71
2023-03-08T04:29:27.291Z,324.71
2023-03-08T04:30:27.282Z,345.88
2023-03-08T04:31:27.404Z,15.53
2023-03-08T04:32:27.313Z,14.12
2023-03-08T04:33:27.290Z,15.53
2023-03-08T04:34:27.284Z,16.94
2023-03-08T04:35:27.293Z,14.12
2023-03-08T04:36:27.296Z,16.94
2023-03-08T04:37:27.349Z,18.35
2023-03-08T04:38:27.291Z,33.88
2023-03-08T04:39:27.297Z,16.94
2023-03-08T04:40:27.300Z,19.76
2023-03-08T04:41:27.305Z,360
2023-03-08T04:42:27.312Z,38.12
2023-03-08T04:43:27.324Z,39.53
2023-03-08T04:44:27.318Z,33.88
2023-03-08T04:45:27.299Z,19.76
2023-03-08T04:46:27.371Z,19.76
2023-03-08T04:47:27.323Z,19.76
2023-03-08T04:48:27.311Z,19.76
2023-03-08T04:49:27.320Z,19.76
2023-03-08T04:50:27.324Z,19.76
2023-03-08T04:51:27.331Z,19.76
2023-03-08T04:52:27.323Z,19.76
2023-03-08T04:53:27.318Z,19.76
2023-03-08T04:54:27.323Z,19.76
2023-03-08T04:55:27.327Z,19.76
2023-03-08T04:56:27.321Z,19.76
2023-03-08T04:57:27.323Z,19.76
2023-03-08T04:58:27.338Z,19.76
2023-03-08T04:59:27.361Z,19.76
2023-03-08T05:00:27.328Z,19.76
2023-03-08T05:01:27.328Z,19.76
2023-03-08T05:02:27.363Z,19.76
2023-03-08T05:03:27.337Z,19.76
2023-03-08T05:04:27.332Z,19.76
2023-03-08T05:05:27.331Z,19.76
2023-03-08T05:06:27.355Z,19.76
2023-03-08T05:07:27.339Z,19.76
2023-03-08T05:08:27.339Z,19.76
2023-03-08T05:09:27.337Z,19.76
2023-03-08T05:10:27.350Z,19.76
2023-03-08T05:11:27.358Z,19.76
2023-03-08T05:12:27.353Z,19.76
2023-03-08T05:13:27.356Z,19.76
2023-03-08T05:14:27.350Z,19.76
2023-03-08T05:15:27.359Z,19.76
2023-03-08T05:16:27.438Z,19.76
2023-03-08T05:17:27.358Z,19.76
2023-03-08T05:18:27.355Z,19.76
2023-03-08T05:19:27.356Z,19.76
2023-03-08T05:20:27.348Z,19.76
2023-03-08T05:21:27.350Z,19.76
2023-03-08T05:22:27.346Z,19.76
2023-03-08T05:23:28.549Z,19.76
2023-03-08T05:24:27.351Z,19.76
2023-03-08T05:25:27.381Z,144
2023-03-08T05:26:27.352Z,135.53
2023-03-08T05:27:27.366Z,108.71
2023-03-08T05:28:27.354Z,124.24
2023-03-08T05:29:27.358Z,86.12
2023-03-08T05:30:27.364Z,86.12
2023-03-08T05:31:27.509Z,86.12
2023-03-08T05:32:27.480Z,86.12
2023-03-08T05:33:27.366Z,86.12
2023-03-08T05:34:27.365Z,86.12
2023-03-08T05:35:27.378Z,86.12
2023-03-08T05:36:27.381Z,86.12
2023-03-08T05:37:27.684Z,86.12
2023-03-08T05:38:27.381Z,86.12
2023-03-08T05:39:27.376Z,86.12
2023-03-08T05:40:27.367Z,86.12
2023-03-08T05:41:27.391Z,86.12
2023-03-08T05:42:27.392Z,86.12
2023-03-08T05:43:27.382Z,86.12
2023-03-08T05:44:27.394Z,86.12
2023-03-08T05:45:27.501Z,86.12
2023-03-08T05:46:27.473Z,86.12
2023-03-08T05:47:27.398Z,86.12
2023-03-08T05:48:27.389Z,86.12
2023-03-08T05:49:27.378Z,86.12
2023-03-08T05:50:27.371Z,86.12
2023-03-08T05:51:27.374Z,86.12
2023-03-08T05:52:27.389Z,86.12
2023-03-08T05:53:27.392Z,86.12
2023-03-08T05:54:27.379Z,86.12
2023-03-08T05:55:27.401Z,86.12
2023-03-08T05:56:27.406Z,86.12
2023-03-08T05:57:27.396Z,86.12
2023-03-08T05:58:27.384Z,86.12
2023-03-08T05:59:27.404Z,86.12
2023-03-08T06:00:27.399Z,86.12
2023-03-08T06:01:27.422Z,86.12
2023-03-08T06:02:27.444Z,86.12
2023-03-08T06:03:27.439Z,86.12
2023-03-08T06:04:27.406Z,86.12
2023-03-08T06:05:27.398Z,86.12
2023-03-08T06:06:27.403Z,86.12
2023-03-08T06:07:27.411Z,86.12
2023-03-08T06:08:27.408Z,86.12
2023-03-08T06:09:27.411Z,86.12
2023-03-08T06:10:27.423Z,86.12
2023-03-08T06:11:27.415Z,86.12
2023-03-08T06:12:27.409Z,86.12
2023-03-08T06:13:27.412Z,86.12
2023-03-08T06:14:27.425Z,86.12
2023-03-08T06:15:27.415Z,86.12
2023-03-08T06:16:27.456Z,86.12
2023-03-08T06:17:27.425Z,86.12
2023-03-08T06:18:27.415Z,86.12
2023-03-08T06:19:27.576Z,86.12
2023-03-08T06:20:27.422Z,86.12
2023-03-08T06:21:27.417Z,86.12
2023-03-08T06:22:27.410Z,86.12
2023-03-08T06:23:27.418Z,86.12
2023-03-08T06:24:27.422Z,86.12
2023-03-08T06:25:27.414Z,86.12
2023-03-08T06:26:27.443Z,86.12
2023-03-08T06:27:27.430Z,86.12
2023-03-08T06:28:27.416Z,86.12
2023-03-08T06:29:27.428Z,86.12
2023-03-08T06:30:27.489Z,86.12
2023-03-08T06:31:27.428Z,86.12
2023-03-08T06:32:27.482Z,86.12
2023-03-08T06:33:27.461Z,86.12
2023-03-08T06:34:27.449Z,86.12
2023-03-08T06:35:27.572Z,86.12
2023-03-08T06:36:27.475Z,86.12
2023-03-08T06:37:27.447Z,86.12
2023-03-08T06:38:29.436Z,86.12
2023-03-08T06:39:27.442Z,86.12
2023-03-08T06:40:27.450Z,86.12
2023-03-08T06:41:27.457Z,86.12
2023-03-08T06:42:39.989Z,86.12
2023-03-08T06:43:27.458Z,86.12
2023-03-08T06:44:27.463Z,86.12
2023-03-08T06:45:27.457Z,86.12
2023-03-08T06:46:27.522Z,86.12
2023-03-08T06:47:27.452Z,86.12
2023-03-08T06:48:27.453Z,86.12
2023-03-08T06:49:27.471Z,86.12
2023-03-08T06:50:27.466Z,86.12
2023-03-08T06:51:27.479Z,86.12
2023-03-08T06:52:27.466Z,86.12
2023-03-08T06:53:27.465Z,86.12
2023-03-08T06:54:27.458Z,86.12
2023-03-08T06:55:27.473Z,86.12
2023-03-08T06:56:27.467Z,86.12
2023-03-08T06:57:27.466Z,86.12
2023-03-08T06:58:27.471Z,86.12
2023-03-08T06:59:27.474Z,86.12
2023-03-08T07:00:27.466Z,86.12
2023-03-08T07:01:27.496Z,86.12
2023-03-08T07:02:27.474Z,86.12
2023-03-08T07:03:27.465Z,86.12
2023-03-08T07:04:27.526Z,86.12
2023-03-08T07:05:27.485Z,86.12
2023-03-08T07:06:27.474Z,86.12
2023-03-08T07:07:27.560Z,86.12
2023-03-08T07:08:27.481Z,86.12
2023-03-08T07:09:27.472Z,86.12
2023-03-08T07:10:27.488Z,86.12
2023-03-08T07:11:27.478Z,86.12
2023-03-08T07:12:27.504Z,86.12
2023-03-08T07:13:27.482Z,86.12
2023-03-08T07:14:27.482Z,86.12
2023-03-08T07:15:27.493Z,86.12
2023-03-08T07:16:27.475Z,86.12
2023-03-08T07:17:27.485Z,86.12
2023-03-08T07:18:27.501Z,86.12
2023-03-08T07:19:27.502Z,86.12
2023-03-08T07:20:27.516Z,86.12
2023-03-08T07:21:27.501Z,86.12
2023-03-08T07:22:27.483Z,86.12
2023-03-08T07:23:27.578Z,86.12
2023-03-08T07:24:27.495Z,86.12
2023-03-08T07:25:27.488Z,86.12
2023-03-08T07:26:27.496Z,86.12
2023-03-08T07:27:27.488Z,86.12
2023-03-08T07:28:27.483Z,86.12
2023-03-08T07:29:27.505Z,86.12
2023-03-08T07:30:27.495Z,86.12
2023-03-08T07:31:27.500Z,86.12
2023-03-08T07:32:27.627Z,86.12
2023-03-08T07:33:27.494Z,86.12
2023-03-08T07:34:27.492Z,86.12
2023-03-08T07:35:27.492Z,86.12
2023-03-08T07:36:27.497Z,86.12
2023-03-08T07:37:27.518Z,86.12
2023-03-08T07:38:27.505Z,86.12
2023-03-08T07:39:27.523Z,86.12
2023-03-08T07:40:27.518Z,86.12
2023-03-08T07:41:27.511Z,86.12
2023-03-08T07:42:27.500Z,86.12
2023-03-08T07:43:27.517Z,86.12
2023-03-08T07:44:27.504Z,86.12
2023-03-08T07:45:27.503Z,86.12
2023-03-08T07:46:27.614Z,86.12
2023-03-08T07:47:27.531Z,86.12
2023-03-08T07:48:27.505Z,86.12
2023-03-08T07:49:27.524Z,86.12
2023-03-08T07:50:27.517Z,86.12
2023-03-08T07:51:27.515Z,86.12
2023-03-08T07:52:27.529Z,86.12
2023-03-08T07:53:27.507Z,86.12
2023-03-08T07:54:27.512Z,86.12
2023-03-08T07:55:27.610Z,86.12
2023-03-08T07:56:27.546Z,86.12
2023-03-08T07:57:27.532Z,86.12
2023-03-08T07:58:27.514Z,86.12
2023-03-08T07:59:27.511Z,86.12
2023-03-08T08:00:27.554Z,86.12
2023-03-08T08:01:27.517Z,145.41
2023-03-08T08:02:27.512Z,151.06
2023-03-08T08:03:27.629Z,128.47
2023-03-08T08:04:27.514Z,160.94
2023-03-08T08:05:27.620Z,160.94
2023-03-08T08:06:27.528Z,64.94
2023-03-08T08:07:27.529Z,67.76
2023-03-08T08:08:27.540Z,67.76
2023-03-08T08:09:27.520Z,67.76
2023-03-08T08:10:27.518Z,169.41
2023-03-08T08:11:27.641Z,122.82
2023-03-08T08:12:27.533Z,122.82
2023-03-08T08:13:27.521Z,122.82
2023-03-08T08:14:27.509Z,122.82
2023-03-08T08:15:27.530Z,122.82
2023-03-08T08:16:27.586Z,128.47
2023-03-08T08:17:27.535Z,128.47
2023-03-08T08:18:27.518Z,72
2023-03-08T08:19:27.517Z,73.41
2023-03-08T08:20:27.540Z,73.41
2023-03-08T08:21:27.634Z,73.41
2023-03-08T08:22:27.521Z,73.41
2023-03-08T08:23:27.520Z,73.41
2023-03-08T08:24:27.527Z,73.41
2023-03-08T08:25:27.521Z,73.41
2023-03-08T08:26:27.554Z,88.94
2023-03-08T08:27:27.550Z,77.65
2023-03-08T08:28:27.546Z,105.88
2023-03-08T08:29:27.521Z,66.35
2023-03-08T08:30:27.534Z,66.35
2023-03-08T08:31:27.555Z,84.71
2023-03-08T08:32:27.581Z,124.24
2023-03-08T08:33:27.542Z,98.82
2023-03-08T08:34:27.536Z,350.12
2023-03-08T08:35:40.997Z,350.12
2023-03-08T08:36:27.599Z,350.12
2023-03-08T08:37:27.541Z,350.12
2023-03-08T08:38:27.561Z,350.12
2023-03-08T08:39:27.551Z,190.59
2023-03-08T08:40:28.419Z,193.41
2023-03-08T08:41:27.545Z,169.41
2023-03-08T08:42:27.548Z,169.41
2023-03-08T08:43:27.679Z,169.41
2023-03-08T08:44:27.571Z,169.41
2023-03-08T08:45:27.613Z,169.41
2023-03-08T08:46:27.553Z,169.41
2023-03-08T08:47:27.565Z,169.41
2023-03-08T08:48:27.574Z,139.76
2023-03-08T08:49:27.567Z,105.88
2023-03-08T08:50:27.560Z,168
2023-03-08T08:51:27.569Z,148.24
2023-03-08T08:52:27.564Z,139.76
2023-03-08T08:53:27.567Z,166.59
2023-03-08T08:54:27.674Z,194.82
2023-03-08T08:55:27.568Z,183.53
2023-03-08T08:56:28.465Z,183.53
2023-03-08T08:57:27.571Z,131.29
2023-03-08T08:58:27.586Z,179.29
2023-03-08T08:59:27.602Z,160.94
2023-03-08T09:00:27.586Z,177.88
2023-03-08T09:01:27.576Z,169.41
2023-03-08T09:02:27.617Z,149.65
2023-03-08T09:03:27.571Z,172.24
2023-03-08T09:04:27.687Z,166.59
2023-03-08T09:05:27.585Z,117.18
2023-03-08T09:06:27.607Z,148.24
2023-03-08T09:07:27.595Z,122.82
2023-03-08T09:08:27.589Z,121.41
2023-03-08T09:09:27.587Z,110.12
2023-03-08T09:10:27.598Z,141.18
2023-03-08T09:11:27.596Z,105.88
2023-03-08T09:12:27.602Z,105.88
2023-03-08T09:13:27.628Z,176.47
2023-03-08T09:14:27.597Z,141.18
2023-03-08T09:15:27.625Z,139.76
2023-03-08T09:16:27.697Z,175.06
2023-03-08T09:17:27.600Z,153.88
2023-03-08T09:18:27.600Z,206.12
2023-03-08T09:19:27.636Z,225.88
2023-03-08T09:20:27.609Z,225.88
2023-03-08T09:21:27.623Z,225.88
2023-03-08T09:22:27.620Z,173.65
2023-03-08T09:23:27.624Z,192
2023-03-08T09:24:27.622Z,168
2023-03-08T09:25:27.618Z,153.88
2023-03-08T09:26:27.652Z,153.88
2023-03-08T09:27:27.625Z,153.88
2023-03-08T09:28:27.628Z,153.88
2023-03-08T09:29:27.634Z,207.53
2023-03-08T09:30:27.620Z,231.53
2023-03-08T09:31:27.732Z,241.41
2023-03-08T09:32:27.616Z,227.29
2023-03-08T09:33:27.621Z,170.82
2023-03-08T09:34:27.617Z,177.88
2023-03-08T09:35:27.708Z,196.24
2023-03-08T09:36:27.636Z,131.29
2023-03-08T09:37:27.624Z,153.88
2023-03-08T09:38:27.639Z,153.88
2023-03-08T09:39:27.635Z,153.88
2023-03-08T09:40:27.637Z,153.88
2023-03-08T09:41:27.658Z,153.88
2023-03-08T09:42:27.639Z,153.88
2023-03-08T09:43:27.633Z,238.59
2023-03-08T09:44:27.653Z,232.94
2023-03-08T09:45:27.645Z,232.94
2023-03-08T09:46:27.677Z,183.53
2023-03-08T09:47:27.689Z,170.82
2023-03-08T09:48:27.643Z,153.88
2023-03-08T09:49:27.690Z,153.88
2023-03-08T09:50:27.653Z,153.88
2023-03-08T09:51:27.678Z,232.94
2023-03-08T09:52:27.646Z,210.35
2023-03-08T09:53:27.698Z,240
2023-03-08T09:54:27.649Z,214.59
2023-03-08T09:55:27.709Z,211.76
2023-03-08T09:56:27.665Z,241.41
2023-03-08T09:57:27.710Z,211.76
2023-03-08T09:58:27.652Z,211.76
2023-03-08T09:59:27.660Z,211.76
2023-03-08T10:00:27.661Z,211.76
2023-03-08T10:01:27.672Z,189.18
2023-03-08T10:02:27.657Z,199.06
2023-03-08T10:03:27.680Z,182.12
2023-03-08T10:04:27.655Z,187.76
2023-03-08T10:05:27.671Z,187.76
2023-03-08T10:06:27.663Z,199.06
2023-03-08T10:07:27.668Z,242.82
2023-03-08T10:08:27.651Z,242.82
2023-03-08T10:09:27.655Z,242.82
2023-03-08T10:10:27.683Z,261.18
2023-03-08T10:11:27.670Z,288
2023-03-08T10:12:27.666Z,208.94
2023-03-08T10:13:27.691Z,227.29
2023-03-08T10:14:27.660Z,245.65
2023-03-08T10:15:27.657Z,238.59
2023-03-08T10:16:27.775Z,238.59
2023-03-08T10:17:27.690Z,238.59
2023-03-08T10:18:27.686Z,238.59
2023-03-08T10:19:27.693Z,238.59
2023-03-08T10:20:27.673Z,238.59
2023-03-08T10:21:27.695Z,238.59
2023-03-08T10:22:27.664Z,238.59
2023-03-08T10:23:27.673Z,238.59
2023-03-08T10:24:27.682Z,238.59
2023-03-08T10:25:27.677Z,238.59
2023-03-08T10:26:27.688Z,317.65
2023-03-08T10:27:27.675Z,261.18
2023-03-08T10:28:27.701Z,261.18
2023-03-08T10:29:27.696Z,261.18
2023-03-08T10:30:27.746Z,261.18
2023-03-08T10:31:27.718Z,261.18
2023-03-08T10:32:27.742Z,272.47
2023-03-08T10:33:27.697Z,273.88
2023-03-08T10:34:27.675Z,273.88
2023-03-08T10:35:27.720Z,273.88
2023-03-08T10:36:27.693Z,273.88
2023-03-08T10:37:27.698Z,273.88
2023-03-08T10:38:27.712Z,273.88
2023-03-08T10:39:27.702Z,273.88
2023-03-08T10:40:27.684Z,273.88
2023-03-08T10:41:27.717Z,273.88
2023-03-08T10:42:27.707Z,177.88
2023-03-08T10:43:27.704Z,177.88
2023-03-08T10:44:27.696Z,177.88
2023-03-08T10:45:27.698Z,177.88
2023-03-08T10:46:27.716Z,177.88
2023-03-08T10:47:27.696Z,177.88
2023-03-08T10:48:27.701Z,177.88
2023-03-08T10:49:28.135Z,177.88
2023-03-08T10:50:27.706Z,177.88
2023-03-08T10:51:27.815Z,177.88
2023-03-08T10:52:27.712Z,177.88
2023-03-08T10:53:27.708Z,177.88
2023-03-08T10:54:27.753Z,180.71
2023-03-08T10:55:27.706Z,168
2023-03-08T10:56:27.767Z,168
2023-03-08T10:57:27.706Z,168
2023-03-08T10:58:27.724Z,168
2023-03-08T10:59:27.728Z,168
2023-03-08T11:00:27.712Z,168
2023-03-08T11:01:27.733Z,168
2023-03-08T11:02:27.801Z,168
2023-03-08T11:03:27.735Z,168
2023-03-08T11:04:27.753Z,168
2023-03-08T11:05:27.733Z,168
2023-03-08T11:06:27.743Z,117.18
2023-03-08T11:07:27.754Z,117.18
2023-03-08T11:08:27.759Z,173.65
2023-03-08T11:09:27.742Z,83.29
2023-03-08T11:10:27.866Z,172.24
2023-03-08T11:11:27.744Z,172.24
2023-03-08T11:12:27.746Z,196.24
2023-03-08T11:13:27.745Z,196.24
2023-03-08T11:14:27.772Z,196.24
2023-03-08T11:15:27.738Z,158.12
2023-03-08T11:16:27.763Z,158.12
2023-03-08T11:17:27.733Z,158.12
2023-03-08T11:18:27.751Z,158.12
2023-03-08T11:19:27.734Z,158.12
2023-03-08T11:20:27.752Z,158.12
2023-03-08T11:21:27.764Z,158.12
2023-03-08T11:22:27.747Z,158.12
2023-03-08T11:23:27.773Z,158.12
2023-03-08T11:24:27.772Z,158.12
2023-03-08T11:25:27.765Z,158.12
2023-03-08T11:26:27.752Z,158.12
2023-03-08T11:27:27.757Z,158.12
2023-03-08T11:28:27.747Z,158.12
2023-03-08T11:29:27.766Z,158.12
2023-03-08T11:30:27.765Z,158.12
2023-03-08T11:31:27.831Z,158.12
2023-03-08T11:32:27.870Z,158.12
2023-03-08T11:33:27.987Z,158.12
2023-03-08T11:34:27.751Z,158.12
2023-03-08T11:35:27.765Z,158.12
2023-03-08T11:36:27.760Z,158.12
2023-03-08T11:37:27.762Z,158.12
2023-03-08T11:38:27.763Z,158.12
2023-03-08T11:39:27.815Z,158.12
2023-03-08T11:40:27.773Z,158.12
2023-03-08T11:41:27.770Z,158.12
2023-03-08T11:42:27.772Z,158.12
2023-03-08T11:43:27.792Z,158.12
2023-03-08T11:44:27.771Z,155.29
2023-03-08T11:45:27.786Z,74.82
2023-03-08T11:46:27.849Z,74.82
2023-03-08T11:47:27.801Z,74.82
2023-03-08T11:48:27.801Z,74.82
2023-03-08T11:49:27.807Z,74.82
2023-03-08T11:50:27.794Z,74.82
2023-03-08T11:51:27.777Z,74.82
2023-03-08T11:52:27.793Z,74.82
2023-03-08T11:53:27.792Z,179.29
2023-03-08T11:54:27.786Z,151.06
2023-03-08T11:55:27.885Z,151.06
2023-03-08T11:56:27.809Z,163.76
2023-03-08T11:57:27.811Z,220.24
2023-03-08T11:58:27.797Z,166.59
2023-03-08T11:59:27.806Z,166.59
2023-03-08T12:00:27.802Z,166.59
2023-03-08T12:01:27.826Z,166.59
2023-03-08T12:02:27.799Z,166.59
2023-03-08T12:03:27.848Z,166.59
2023-03-08T12:04:27.951Z,166.59
2023-03-08T12:05:27.811Z,166.59
2023-03-08T12:06:29.437Z,166.59
2023-03-08T12:07:27.942Z,166.59
2023-03-08T12:08:27.894Z,166.59
2023-03-08T12:09:27.814Z,166.59
2023-03-08T12:10:27.867Z,166.59
2023-03-08T12:11:27.836Z,166.59
2023-03-08T12:12:27.830Z,166.59
2023-03-08T12:13:27.802Z,166.59
2023-03-08T12:14:27.795Z,145.41
2023-03-08T12:15:27.858Z,158.12
2023-03-08T12:16:27.924Z,158.12
2023-03-08T12:17:27.906Z,158.12
2023-03-08T12:18:27.822Z,158.12
2023-03-08T12:19:27.813Z,158.12
2023-03-08T12:20:27.804Z,158.12
2023-03-08T12:21:27.816Z,158.12
2023-03-08T12:22:27.840Z,165.18
2023-03-08T12:23:27.818Z,110.12
2023-03-08T12:24:27.892Z,148.24
2023-03-08T12:25:27.830Z,148.24
2023-03-08T12:26:27.822Z,148.24
2023-03-08T12:27:27.838Z,148.24
2023-03-08T12:28:27.815Z,148.24
2023-03-08T12:29:27.859Z,148.24
2023-03-08T12:30:27.847Z,148.24
2023-03-08T12:31:29.005Z,148.24
2023-03-08T12:32:28.012Z,129.88
2023-03-08T12:33:27.961Z,141.18
2023-03-08T12:34:27.830Z,138.35
2023-03-08T12:35:27.826Z,159.53
2023-03-08T12:36:27.973Z,155.29
2023-03-08T12:37:27.900Z,155.29
2023-03-08T12:38:27.862Z,155.29
2023-03-08T12:39:27.910Z,155.29
2023-03-08T12:40:27.909Z,155.29